LiveATC.Net - Listen to live air traffic control over the Internet!

Find LiveATC Audio Streams


Airport/ARTCC Code

Frequency Search
(e.g., 124.400, 128.75)
Site-wide search
 


Browse LiveATC Feeds
LiveATC Coverage Map
Top 50 LiveATC Feeds
Bad Weather Areas

LiveATC FAQ
Offer a LiveATC Feed
Contact LiveATC.net
Press Inquiries

LiveATC on iPhone
LiveATC on Android

Windows Phone
Windows 8/10

LiveATC Mobile
(Mobile browser)

ATC Audio Archives
Interesting Recordings

LiveATC Forums

Home Page
About LiveATC.net
Make a Donation
LiveATC Store

Terms of Use
Privacy Policy

Canadian Air Freqs

AIRMETs/SIGMETs

FAA Airport Status
Nat'l Airspace Status
Arrival Demand Charts


Server Software By:
Icecast.org
Liquidsoap


Current Potentially Bad Weather Airports
(updated every 30 minutes - sorted alphabetically by ICAO code)



This page lists LiveATC.net airport areas that may be interesting to listen to because of challenging flying (weather) conditions. Challenging weather conditions include low ceilings, limited visibility, high or gusty winds, or thunderstorms.

Updated: Thu Jan 19 08:40:01 UTC 2017
Click on airport name to go to that airport area's feeds.

CYAM Tower Sault Ste. Marie Airport (Sault Ste. Marie, CA-ON)
WX MAP UNAVAILABLENearest METAR:
CYAM 190800Z VRB02KT 6SM BR OVC006 00/M01 A2991 RMK ST8 SLP138
CYHU Tower #1 Saint-Hubert Airport (Montreal, CA-QC)
cyhuNearest METAR:
CYHU 190817Z AUTO 22006KT 5/8SM R24R/4500FT/U BR VV003 M00/M00 A2992 RMK ICG SLP136
CYMX Ground/Radio Montreal-Mirabel International Airport (Montreal, CA-QC)
cymxNearest METAR:
CYMX 190700Z 23005KT 1SM R06/3000FT/D -SN BR OVC002 M02/M02 A2991 RMK FG2SF6 SLP136
CYOW Gnd/Twr/App Ottawa MacDonald Cartier International Airport (Ottawa, CA-ON)
cyowNearest METAR:
CYOW 190700Z 22005KT 5SM BR OVC003 00/00 A2994 RMK ST8 SLP145
CYQB Tower Quebec Jean Lesage International Airport (Quebec, CA-QC)
cyqbNearest METAR:
CYQB 190735Z 00000KT 3SM -SN BKN012 OVC046 M05/M06 A2989 RMK SC6SC2 SLP128
CYQG Ground/Tower Windsor Airport (Windsor, CA-ON)
cyqgNearest METAR:
CYQG 190700Z 24012KT 8SM OVC009 01/M00 A3004 RMK SC8 SLP180
CYSC CTAF Sherbrooke Airport (Sherbrooke, CA-QC)
WX MAP UNAVAILABLENearest METAR:
CYSC 190752Z AUTO 22004KT 6SM -SN BKN005 OVC019 M01/M02 A2990 RMK SLP137
CYTS CTAF/FSS/Area Timmins Airport (Timmins, CA-ON)
WX MAP UNAVAILABLENearest METAR:
CYTS 190700Z 29006KT 250V320 15SM -SN OVC010 01/M01 A2984 RMK SC8 SLP120
CYUL Approach/Departure Pierre Elliott Trudeau International Airport (Montreal, CA-QC)
cyulNearest METAR:
CYUL 190750Z 24009KT 1SM R24R/4500VP6000FT/U R24L/4000V5000FT/U BR OVC002 M00/M01 A2993 RMK FG2ST6 SLP138
CYVO Gnd/RDO/Center Val-D'Or Airport (Val-D'Or, CA-QC)
WX MAP UNAVAILABLENearest METAR:
CYVO 190723Z AUTO 25006KT 220V280 5SM -SN OVC005 M01/M01 A2983 RMK SLP122
CYZF Ground/Tower Yellowknife Airport (Yellowknife, CA-NT)
WX MAP UNAVAILABLENearest METAR:
CYZF 190700Z 04011KT 15SM -SN OVC082 M14/M16 A2932 RMK AC8 SLP953
EKCH Approach Copenhagen Airport (Copenhagen, Denmark)
WX MAP UNAVAILABLENearest METAR:
EKCH 190750Z 24007KT 2000 BR OVC002 03/03 Q1034 NOSIG
ENBO Approach Bodo Airport (Bodo, Norway)
WX MAP UNAVAILABLENearest METAR:
ENBO 190750Z 27036G50KT 9999 7000E -SHRAGS FEW009 SCT015CB 02/M00 Q0996 TEMPO 1000 SHSNRAGS VV008
ENEV Twr/App/AFIS Harstad/Narvik Airport (Evenes, Norway)
WX MAP UNAVAILABLENearest METAR:
ENEV 190750Z 28011KT 240V320 2500 SHSN VV009 00/M02 Q0990 RMK WIND 1400FT 26026KT
ENKB Twr/App Kristiansund Kvernberget Airport (Kristiansund, Norway)
WX MAP UNAVAILABLENearest METAR:
ENKB 190750Z 26024KT 9000 -DZ SCT008 BKN028 07/06 Q1016 REDZ RMK WIND 745FT 27034G47KT
ENTC Tower/App Tromso Airport (Langnes, Norway)
WX MAP UNAVAILABLENearest METAR:
ENTC 190750Z 30014KT 9999 -SN FEW017 SCT037 BKN053 01/M05 Q0985 TEMPO 28020G30KT 1000 SHSN OVC006 FEW015CB RMK WIND 2600FT 31051G64KT
ENVA Gnd/Twr/App Vaernes Airport (Trondheim, Norway)
WX MAP UNAVAILABLENearest METAR:
ENVA 190750Z 27024KT 9999 VCSH FEW020 BKN032 07/03 Q1013 TEMPO RADZ BKN014 RMK WIND 670FT 28024G37KT
EPGD Tower/Approach Gdansk Lech Walesa Airport (Gdansk, Poland)
WX MAP UNAVAILABLENearest METAR:
EPGD 190730Z 25015KT 6000 OVC005 M02/M03 Q1032 R11/290095
EPKK Gnd/Tower/App John Paul II Balice International Airport (Krakow, Poland)
WX MAP UNAVAILABLENearest METAR:
EPKK 190730Z 08006KT 060V130 6000 OVC007 M07/M09 Q1038
EPKT Del/Twr/App Katowice International Airport (Katowice, Poland)
WX MAP UNAVAILABLENearest METAR:
EPKT 190730Z 16003KT 110V200 4100 BR OVC006 M08/M09 Q1038
EPLB CTAF/Center Lublin Airport (Lublin, Poland)
WX MAP UNAVAILABLENearest METAR:
EPLB 190730Z 26006KT 4000 -SG BR OVC007 M07/M08 Q1039
EPLL Tower Lublinek Airport (Lodz, Poland)
WX MAP UNAVAILABLENearest METAR:
EPLL 190730Z 19004KT 130V220 3000 BR OVC003 M08/M09 Q1038 R25/29//95
EPMO Tower Warsaw-Modlin Mazovia Airport (Warsaw, Poland)
WX MAP UNAVAILABLENearest METAR:
EPMO 190730Z 21007KT 1600 BR OVC004 M07/M08 Q1038
EPPO Twr/App/FIS Poznan-Lawica Henryk Wieniawski Airport (Poznan, Poland)
WX MAP UNAVAILABLENearest METAR:
EPPO 190730Z 21004KT 3500 BR OVC003 M07/M08 Q1039 R10/29//95
EPWR Approach Strachowice Airport (Wroclaw, Poland)
WX MAP UNAVAILABLENearest METAR:
EPWR 190730Z 14006KT 6000 OVC007 M07/M09 Q1039
EPWA Tower Frederic Chopin Airport (Warsaw, Poland)
WX MAP UNAVAILABLENearest METAR:
EPWA 190730Z 21005KT 7000 OVC006 M07/M09 Q1039 NOSIG
ESDF Twr/Control/Misc Ronneby Airport (Ronneby, Sweden)
WX MAP UNAVAILABLENearest METAR:
ESDF 190750Z 27007KT 7000 -DZ BR OVC005 05/05 Q1030
ESGG Gnd/Twr/Control Landvetter Airport (Gothenburg, Sweden)
WX MAP UNAVAILABLENearest METAR:
ESGG 190750Z 26008KT 2900 BR VV003 05/05 Q1029 R21/29//95
EVRA Tower/Guard Riga International Airport (Riga, Latvia)
WX MAP UNAVAILABLENearest METAR:
EVRA 190750Z 21006KT 3500 -DZ BR OVC003 01/01 Q1025 R18/320195 NOSIG
EYKA Gnd/Twr/FIS Kaunas Airport (Kaunas, Lithuania)
WX MAP UNAVAILABLENearest METAR:
EYKA 190750Z 24011KT 5000 BR OVC005 M02/M04 Q1031 R08/590293
EYVI Twr/App/Misc Vilnius International Airport (Vilnius, Lithuania)
WX MAP UNAVAILABLENearest METAR:
EYVI 190750Z 22013KT 3800 -SN BR OVC008 M05/M06 Q1031 R19/1///95 TEMPO 1500 SN FZRA
KALO Gnd/Twr/App Waterloo Regional Airport (Waterloo, US-IA)
kaloNearest METAR:
KALO 190754Z 20010KT 4SM BR OVC003 00/M01 A2995 RMK AO2 SLP151 T00001006
KARB Gnd/Twr Ann Arbor Municipal Airport (Ann Arbor, US-MI)
karbNearest METAR:
KARB 190753Z AUTO 21008KT 10SM OVC007 00/M01 A3005 RMK AO2 SLP183 T00001006
KARR Tower Aurora Municipal Airport (Chicago/Aurora, US-IL)
karrNearest METAR:
KARR 190752Z AUTO 18006KT 1/4SM FG VV002 01/00 A3004 RMK AO2 SLP179 I1001 T00060000
KATW Gnd/Twr/App Outagamie County Regional Airport (Appleton, US-WI)
katwNearest METAR:
KATW 190755Z AUTO 22009KT 3SM BR OVC004 00/00 A2993 RMK AO2
KAUG Del/CTAF Augusta State Airport (Augusta, US-ME)
kaugNearest METAR:
KAUG 190753Z AUTO 34006KT 1 1/2SM -SN BR OVC018 M06/M08 A3001 RMK AO2 SLP168 P0002 T10561078
KAUS App/Dep (West) Austin-Bergstrom International Airport (Austin, US-TX)
kausNearest METAR:
KAUS 190753Z 31003KT 3/4SM R17L/P6000FT BR OVC009 12/11 A2998 RMK AO2 SFC VIS 2 1/2 DZB0658E38 SLP150 P0000 T01220111 $
KBFM Ground/Tower Mobile Downtown Airport (Mobile, US-AL)
kbfmNearest METAR:
KBFM 190753Z AUTO 13004KT 1SM BR VV002 21/20 A3005 RMK AO2 SLP174 T02060200
KBGR Del/Gnd/Twr Bangor International Airport (Bangor, US-ME)
kbgrNearest METAR:
KBGR 190753Z 00000KT 1 3/4SM -SN BR OVC021 M05/M06 A3001 RMK AO2 SLP167 P0003 T10501056
KBNW CTAF Boone Municipal Airport (Boone, US-IA)
kbnwNearest METAR:
KBNW 190755Z AUTO 19007KT 1/4SM FG OVC002 01/01 A2989 RMK AO2
KBOK CTAF Brookings Airport (Brookings, US-OR)
kbokNearest METAR:
KBOK 190756Z AUTO VRB05KT 6SM BR OVC008 10/09 A2961 RMK AO2 SLP044 T01000089 401330089
MA/NH/RI/CT Area CTAF Fitchburg Municipal Airport (Fitchburg, US-MA)
kpymNearest METAR:
KPYM 190752Z AUTO 28003KT 7SM OVC003 01/01 A3000 RMK AO2 SLP159 T00110006
MA/NH/RI/CT Area CTAF Fitchburg Municipal Airport (Fitchburg, US-MA)
ksfzNearest METAR:
KSFZ 190756Z AUTO 33004KT 1 3/4SM BR OVC002 A3000 RMK AO2 SLPNO FZRANO
KBPK CTAF Baxter County Airport (Mountain Home, US-AR)
kbpkNearest METAR:
KBPK 190753Z AUTO 13004KT 5SM BR OVC004 06/05 A2997 RMK AO2 RAB08E27 SLP150 P0000 T00560050
KBTL/KAZO Gnd/Twr/App Kalamazoo/Battle Creek International Airport (Kalamazoo, US-MI)
kazoNearest METAR:
KAZO 190753Z AUTO 24005G15KT 6SM HZ OVC009 02/M01 A3006 RMK AO2 SLP189 T00171011
KCAK Del/Gnd/Twr/App Akron-Canton Regional Airport (Akron, US-OH)
kcakNearest METAR:
KCAK 190751Z 23008KT 7SM OVC006 03/01 A3008 RMK AO2 SLP195 T00280006
KCFD CTAF/App Coulter Field Airport (Bryan, US-TX)
kcfdNearest METAR:
KCFD 190755Z AUTO 00000KT 1 3/4SM BR OVC002 10/10 A2995 RMK AO2 T01030103
KCID Gnd/Twr/App The Eastern Iowa Airport (Cedar Rapids, US-IA)
kcidNearest METAR:
KCID 190752Z AUTO 17005KT 1/4SM FG VV001 00/00 A2996 RMK AO2 SLP155 T00000000
KCLE App/Dep Cleveland-Hopkins International Airport (Cleveland, US-OH)
kcleNearest METAR:
KCLE 190751Z 22010KT 10SM OVC008 03/01 A3010 RMK AO2 SLP200 T00330006 $
KCLL Gnd/Twr/App Easterwood Field Airport (College Station, US-TX)
kcllNearest METAR:
KCLL 190753Z AUTO 00000KT 3SM BR OVC002 11/11 A2993 RMK AO2 SLP134 T01110106
KCPR Tower/App Casper/Natrona County International Airport (Casper, US-WY)
kcprNearest METAR:
KCPR 190753Z AUTO 22020G30KT 10SM CLR 00/M08 A2969 RMK AO2 PK WND 21035/0718 SLP056 T00001083
KCVG Tower/Approach Cincinnati/Northern Kentucky International Airport (Covington, US-KY)
kcvgNearest METAR:
KCVG 190752Z 19003KT 9SM OVC008 04/03 A3012 RMK AO2 SLP201 T00390028
KDAY Del/Gnd/Twr/App James M Cox Dayton International Airport (Dayton, US-OH)
kdayNearest METAR:
KDAY 190756Z 23007KT 2SM BR OVC005 02/02 A3011 RMK AO2 SFC VIS 4 DZE19 SLP205 P0000 T00220017
KDBQ Gnd/Twr/ZAU Dubuque Regional Airport (Dubuque, US-IA)
kdbqNearest METAR:
KDBQ 190753Z AUTO 20011KT 1/4SM R36/1200V1400FT FG VV002 01/01 A2997 RMK AO2 SLP160 T00060006
KDLH Gnd/Twr/App Duluth International Airport (Duluth, US-MN)
kdlhNearest METAR:
KDLH 190755Z 22009KT 1/4SM R09/1600V1800FT FG VV002 00/00 A2975 RMK AO2 SLP091 I1001 T00000000
KDPA Del/Gnd/Twr/Misc Dupage Airport (Chicago, US-IL)
kdpaNearest METAR:
KDPA 190752Z 19004KT 3SM BR OVC003 00/M01 A3003 RMK AO2 SLP177 I1000 T00001011
KDSM Gnd/Twr/App Des Moines International Airport (Des Moines, US-IA)
kdsmNearest METAR:
KDSM 190754Z 19006KT 1SM R31/5000VP6000FT BR OVC002 03/02 A2993 RMK AO2 SFC VIS 1 3/4 SLP139 T00280022
KDTO Gnd/Twr Denton Municipal Airport (Denton, US-TX)
kdtoNearest METAR:
KDTO 190753Z AUTO 25003KT 1/4SM FG VV003 06/06 A2994 RMK AO2 SLP136 T00560056
KDTW Approach Detroit Metropolitan Wayne County Airport (Detroit, US-MI)
kdtwNearest METAR:
KDTW 190753Z 23012KT 7SM OVC006 01/M01 A3007 RMK AO2 SLP188 T00111006
KDWH Del/ Gnd/Twr David Wayne Hooks Memorial Airport (Houston, US-TX)
kdwhNearest METAR:
KDWH 190753Z AUTO VRB05KT 10SM OVC004 13/12 A2992 RMK AO2 RAB23E35 SLP132 P0000 T01280122
KFTW Clearance/Gnd/Twr Fort Worth Meacham International Airport (Fort Worth, US-TX)
kftwNearest METAR:
KFTW 190753Z 23005KT 1/2SM R16/2400V4500FT FG VV001 08/07 A2994 RMK AO2 SLP135 T00830072
KFWS Ground/Tower Fort Worth Spinks Airport (Fort Worth, US-TX)
kfwsNearest METAR:
KFWS 190755Z AUTO 23005KT 3/4SM BR OVC002 08/08 A2995 RMK AO2 T00830077
KFYV Gnd/Twr/App/ZME Drake Field Airport (Fayetteville, US-AR)
kfyvNearest METAR:
KFYV 190753Z AUTO 00000KT 10SM OVC009 09/09 A2992 RMK AO2 SLP129 T00940094
KGAO AWOS South Lafourche Leonard Miller Jr. Airport (Galliano, US-LA)
kgaoNearest METAR:
KGAO 190755Z AUTO 17009KT 7SM OVC006 22/20 A2999 RMK AO2 T02210203
KGFL CTAF/App Floyd Bennett Memorial Airport (Glens Falls, US-NY)
kgflNearest METAR:
KGFL 190753Z AUTO 16006KT 2 1/2SM BR OVC003 02/01 A2998 RMK AO2 SLP158 T00220006
KGGG Gnd/Twr East Texas Regional Airport (Longview, US-TX)
kgggNearest METAR:
KGGG 190753Z AUTO 00000KT 8SM OVC004 12/12 A2993 RMK AO2 SLP134 T01170117
KGNV Ground/Tower Gainesville Regional Airport (Gainesville, US-FL)
kgnvNearest METAR:
KGNV 190753Z AUTO 00000KT 1/2SM FG VV016 16/15 A3007 RMK AO2 SLP180 T01610150
KGRB Del/Gnd/Twr/App Austin Straubel International Airport (Green Bay, US-WI)
kgrbNearest METAR:
KGRB 190753Z AUTO 22006KT 5SM BR OVC006 01/00 A2995 RMK AO2 SLP149 T00110000
KGRR Gnd/Twr/App Gerald R. Ford International Airport (Grand Rapids, US-MI)
kgrrNearest METAR:
KGRR 190753Z AUTO 24009KT 7SM OVC009 02/M01 A3003 RMK AO2 SLP178 T00171006
KGTU Gnd/Twr Georgetown Municipal Airport (Georgetown, US-TX)
kgtuNearest METAR:
KGTU 190755Z 27006KT 10SM OVC006 11/09 A2999 RMK AO1
KGYI Ground/Tower North Texas Regional Airport/Perrin Field (Sherman/Denison, US-TX)
kgyiNearest METAR:
KGYI 190755Z AUTO 18004KT 3/4SM BR OVC001 A2994 RMK AO2
KHOU Gnd/Twr/App William P Hobby Airport (Houston, US-TX)
khouNearest METAR:
KHOU 190753Z 00000KT 6SM -RA BR OVC004 14/13 A2992 RMK AO2 RAB42 PRESFR SLP137 P0000 T01390133
KHRL Tower/CTAF Valley International Airport (Harlingen, US-TX)
khrlNearest METAR:
KHRL 190752Z 00000KT 10SM SCT036 BKN047 OVC080 16/16 A2994 RMK AO2 LTG DSNT SW-N SLP138 T01610156
KHRO CTAF/ZME/Misc Boone County Airport (Harrison, US-AR)
khroNearest METAR:
KHRO 190753Z AUTO 14009KT 1/2SM FG VV002 06/06 A2994 RMK AO2 SLP142 T00560056
KHUL/KPQI/ZBW01/15 Houlton International Airport (Houlton, US-ME)
kpqiNearest METAR:
KPQI 190756Z AUTO 16007KT 3SM -SN BR OVC014 M08/M09 A2996 RMK AO2 SLP191 P0000 T10831094 FZRANO
KHUL/KPQI/ZBW01/15 Houlton International Airport (Houlton, US-ME)
khulNearest METAR:
KHUL 190753Z AUTO 18003KT 1 1/2SM -SN BR OVC019 M07/M09 A2997 RMK AO2 SLP160 P0001 T10721089
KHWV CTAF Brookhaven Airport (Shirley, US-NY)
khwvNearest METAR:
KHWV 190756Z AUTO 35003KT 10SM OVC007 03/02 A3003 RMK AO2 SLP169 T00280022 TSNO
KIAH Tower George Bush Intercontinental/Houston Airport (Houston, US-TX)
kiahNearest METAR:
KIAH 190753Z 32004KT 2SM -RA OVC005 13/12 A2993 RMK AO2 SFC VIS 7 RAB51 SLP135 P0000 T01330122
KIXD ASOS/ATIS New Century AirCenter Airport (Olathe, US-KS)
kixdNearest METAR:
KIXD 190753Z AUTO 14007KT 2 1/2SM BR OVC007 06/04 A2991 RMK AO2 SLP132 T00560044
KJBR CTAF/UNICOM/Misc Jonesboro Municipal Airport (Jonesboro, US-AR)
kjbrNearest METAR:
KJBR 190753Z AUTO 07007KT 9SM OVC009 08/07 A2999 RMK AO2 SLP157 T00780067
KJLN Ground/Tower Joplin Regional Airport (Joplin, US-MO)
kjlnNearest METAR:
KJLN 190753Z AUTO 17005KT 10SM OVC009 08/07 A2992 RMK AO2 SLP131 T00830072
KJXN Del/Gnd/Twr/App Jackson County Airport-Reynolds Field (Jackson, US-MI)
kjxnNearest METAR:
KJXN 190756Z AUTO 25008KT 7SM OVC006 01/M01 A3004 RMK AO2 SLP182 T00061011 $
KLAF Tower Purdue University Airport (Lafayette, US-IN)
klafNearest METAR:
KLAF 190754Z AUTO 16003KT 7SM OVC008 02/01 A3009 RMK AO2 SLP193 T00170011
KLAN Del/Gnd/Twr/App Capital Region International Airport (Lansing, US-MI)
klanNearest METAR:
KLAN 190753Z 24010KT 8SM OVC008 01/M02 A3005 RMK AO2 SLP185 T00061017
KLBX CTAF Texas Gulf Coast Regional Airport (Angleton/Lake Jackson, US-TX)
klbxNearest METAR:
KLBX 190753Z AUTO 36004KT 10SM -RA OVC004 14/13 A2992 RMK AO2 PRESFR SLP130 P0001 T01390128
KLCI Del/CTAF Laconia Municipal Airport (Laconia, US-NH)
klciNearest METAR:
KLCI 190756Z AUTO 00000KT 4SM -SN BR OVC026 M03/M04 A2999 RMK AO2 SLP175 P0003 T10281039 FZRANO
KLFT Gnd/Twr/App Lafayette Regional Airport/Paul Fournet Field (Lafayette, US-LA)
klftNearest METAR:
KLFT 190753Z AUTO 19008KT 9SM -RA BKN006 OVC013 23/22 A2993 RMK AO2 LTG DSNT W CIG 004V009 SLP133 P0007 T02280217
KLWM Ground/Tower Lawrence Municipal Airport (Lawrence, US-MA)
klwmNearest METAR:
KLWM 190754Z AUTO 00000KT 10SM OVC006 M01/M02 A3003 RMK AO2 SLP170 T10111017
KMEM Approach Memphis International Airport (Memphis, US-TN)
kmemNearest METAR:
KMEM 190754Z 09003KT 8SM OVC008 12/11 A2998 RMK AO2 SLP152 T01220111
KMFE Gnd/Twr Mc Allen Miller International Airport (Mc Allen, US-TX)
kmfeNearest METAR:
KMFE 190753Z AUTO 00000KT 8SM VCTS FEW007 BKN013 OVC110 16/15 A2997 RMK AO2 LTG DSNT NE-S RAE53 TSB05E35 SLP149 P0046 T01610150
KMKE Tower/App General Mitchell International Airport (Milwaukee, US-WI)
kmkeNearest METAR:
KMKE 190752Z 24008KT 1 1/4SM BR OVC003 02/01 A3000 RMK AO2 SFC VIS 3 DZB01E21 SLP167 P0000 T00170006
KMLC CTAF/ZFW McAlester Regional Airport (McAlester, US-OK)
kmlcNearest METAR:
KMLC 190753Z AUTO 00000KT 3/4SM -RA BR VV003 09/08 A2993 RMK AO2 RAB53 SLP134 P0000 T00890083
KMSN Twr/App Dane County Regional Airport-Truax Field (Madison, US-WI)
kmsnNearest METAR:
KMSN 190753Z AUTO 19005KT 1 1/4SM R36/4500VP6000FT BR OVC002 01/01 A2999 RMK AO2 SLP164 T00060006
KMTW CTAF Manitowoc County Airport (Manitowoc, US-WI)
kmtwNearest METAR:
KMTW 190756Z AUTO 00000KT 2 1/2SM BR BKN011 M02/M03 A2997 RMK AO2 VIS 2V3 SLP172 T10221033 FZRANO
KOJC Gnd/Twr/App/ZKC Johnson County Executive Airport (Olathe, US-KS)
kojcNearest METAR:
KOJC 190800Z AUTO 15003KT 1 1/2SM BR BKN004 OVC007 05/05 A2991 RMK AO2 CIG 002V006 T00500050
KOKC App/Dep (NE) Will Rogers World Airport (Oklahoma City, US-OK)
kokcNearest METAR:
KOKC 190752Z 19011KT 10SM OVC006 09/07 A2988 RMK AO2 SLP116 T00890072
KORD Ground Chicago O'Hare International Airport (Chicago, US-IL)
kordNearest METAR:
KORD 190751Z 21007KT 2SM BR OVC003 01/01 A3004 RMK AO2 SLP179 T00110006
KOSU Ground/Tower Ohio State University Airport (Columbus, US-OH)
kosuNearest METAR:
KOSU 190753Z AUTO 21008KT 8SM OVC007 03/03 A3011 RMK AO2 SLP203 T00330028
KOTM Del/Twr/App/Center Ottumwa Regional Airport (Ottumwa, US-IA)
kotmNearest METAR:
KOTM 190753Z AUTO 16006KT 1/4SM FG VV002 01/M01 A2995 RMK AO2 SLP147 T00061006
KOWD Ground/Tower Norwood Municipal Airport (Norwood, US-MA)
kowdNearest METAR:
KOWD 190825Z AUTO 00000KT 4SM -SN BR OVC006 01/00 A3001 RMK AO2 SNB00 P0000 T00060000
KPAE Gnd/Twr/App Snohomish County Airport (Paine Field) (Everett, US-WA)
kpaeNearest METAR:
KPAE 190753Z AUTO 15023G30KT 10SM BKN012 OVC075 07/06 A2936 RMK AO2 PK WND 15030/0735 SLP943 T00720056 401060061 PWINO $
KPGV CTAF Pitt-Greenville Airport (Greenville, US-NC)
kpgvNearest METAR:
KPGV 190745Z AUTO 00000KT 3/4SM -SN VV005 03/03 A3007 RMK AO2
KPIE Del/Gnd/Twr St Petersburg-Clearwater International Airport (St Petersburg-Clearwater, US-FL)
kpieNearest METAR:
KPIE 190753Z AUTO 00000KT 1/4SM R18L/P6000FT FG VV003 15/15 A3008 RMK AO2 SLP186 T01500150 $
KPIT Gnd/Twr/App Pittsburgh International Airport (Pittsburgh, US-PA)
kpitNearest METAR:
KPIT 190751Z 25005KT 9SM OVC008 03/02 A3009 RMK AO2 SLP204 T00280022
KPNS/KNPA Del/Gnd/Twr/App Pensacola Naval Air Station (Forrest Sherman Field) (Pensacola, US-FL)
kpnsNearest METAR:
KPNS 190753Z AUTO 00000KT 1/4SM R17/1200V1400FT FG VV002 20/19 A3005 RMK AO2 SLP176 T02000189
KPNS/KNPA Del/Gnd/Twr/App Pensacola Naval Air Station (Forrest Sherman Field) (Pensacola, US-FL)
knpaNearest METAR:
KNPA 190756Z AUTO 00000KT 1/2SM FG VV003 20/19 A3004 RMK AO2 SLP174 T02000194 $
KPOU Ground/Tower Dutchess County Airport (Poughkeepsie, US-NY)
kpouNearest METAR:
KPOU 190753Z 00000KT 1/4SM FG VV002 01/01 A3001 RMK AO2 SLP159 T00110011
KPTK Tower Oakland County International Airport (Pontiac, US-MI)
kptkNearest METAR:
KPTK 190753Z AUTO 24006KT 8SM OVC006 00/M02 A3002 RMK AO2 SLP174 T00001017
KPWA Gnd/Twr/App Wiley Post Airport (Oklahoma City, US-OK)
kpwaNearest METAR:
KPWA 190753Z AUTO 19013KT 10SM OVC005 09/08 A2988 RMK AO2 SLP117 T00890083
KPWK Del/Gnd/Tower Chicago Executive Airport (Chicago/Prospect Heights/Wheeling, US-IL)
kpwkNearest METAR:
KPWK 190752Z AUTO 21005KT 3SM BR OVC003 01/00 A3006 RMK AO2 SLP184 T00110000
KPWM Gnd/Twr/App #2 Portland International Jetport (Portland, US-ME)
kpwmNearest METAR:
KPWM 190751Z AUTO 36005KT 3SM -SN BR FEW013 BKN028 OVC034 M04/M06 A3001 RMK AO2 SNB0657 SLP165 P0001 T10391056
KRAC CTAF John H Batten Airport (Racine, US-WI)
kracNearest METAR:
KRAC 190753Z AUTO 23007G14KT 2 1/2SM BR OVC003 01/M01 A3003 RMK AO2 SLP174 T00061006 $
KRNO Del/Gnd/Twr/App/ZOA Reno/Tahoe International Airport (Reno, US-NV)
krnoNearest METAR:
KRNO 190755Z 20026G33KT 10SM FEW025 SCT055 SCT085 06/00 A2962 RMK AO2 PK WND 19035/0720 RAE00B17E28 SLP021 P0000 T00560000 400831011
KRVS Ground/Tower Richard Lloyd Jones Jr Airport (Tulsa, US-OK)
krvsNearest METAR:
KRVS 190753Z AUTO 16003KT 7SM OVC005 08/07 A2992 RMK AO2 SLP134 T00830067
KSAW Gnd/Twr/ZMP Sawyer International Airport (Marquette, US-MI)
WX MAP UNAVAILABLENearest METAR:
KSAW 190757Z AUTO 00000KT 1/2SM FZFG VV005 M04/M05 A2985 RMK AO2 T10411046
KSGF Ground/Tower Springfield-Branson National Airport (Springfield, US-MO)
ksgfNearest METAR:
KSGF 190752Z 16010KT 6SM BR OVC004 06/06 A2992 RMK AO2 SLP133 T00610056
KSGR Tower/CTAF #2 Sugar Land Regional Airport (Houston, US-TX)
ksgrNearest METAR:
KSGR 190753Z AUTO 02005KT 10SM OVC005 13/13 A2991 RMK AO2 RAB03E13 SLP129 P0000 T01280128
KSJT Tower/Approach San Angelo Regional Airport/Mathis Field (San Angelo, US-TX)
ksjtNearest METAR:
KSJT 190751Z 22005KT 1 1/2SM BR CLR 03/03 A2993 RMK AO2 SLP136 T00330028
KTAN CTAF Taunton Municipal Airport (Taunton, US-MA)
ktanNearest METAR:
KTAN 190752Z AUTO 32003KT 5SM BR OVC004 01/00 A3000 RMK AO2 SLP160 T00110000
KTIK Gnd/Twr/Misc Tinker Air Force Base (Oklahoma City, US-OK)
ktikNearest METAR:
KTIK 190758Z AUTO 19011KT 10SM OVC008 09/08 A2987 RMK AO2 SLP121 T00890075 PWINO $
KTKI Gnd/Twr Collin County Regional Airport at Mc Kinney (Dallas, US-TX)
ktkiNearest METAR:
KTKI 190753Z AUTO 16003KT 5SM BR FEW004 OVC009 10/10 A2994 RMK AO2 SLP147 T01000100
KTLH Del/Gnd/Twr/App Tallahassee Regional Airport (Tallahassee, US-FL)
ktlhNearest METAR:
KTLH 190753Z AUTO 20003KT 1/4SM FG VV002 17/17 A3006 RMK AO2 SLP178 T01670167
KTME Del/Gnd/Twr/App Houston Executive Airport (Houston, US-TX)
ktmeNearest METAR:
KTME 190755Z AUTO 35006KT 3SM -RA OVC003 12/12 A2993 RMK AO2
KTRK CTAF/Unicom Truckee-Tahoe Airport (Truckee, US-CA)
ktrkNearest METAR:
KTRK 190755Z AUTO 20016G26KT 7SM -SN SCT013 BKN026 OVC036 00/M01 A2969 RMK AO2
KTUL Del/Gnd/Twr/App Tulsa International Airport (Tulsa, US-OK)
ktulNearest METAR:
KTUL 190753Z 16007KT 7SM OVC005 08/07 A2991 RMK AO2 SLP129 T00830072
KTVL CTAF/Unicom Lake Tahoe Airport (South Lake Tahoe, US-CA)
ktvlNearest METAR:
KTVL 190753Z AUTO 20010G22KT 2 1/2SM -SN BKN021 OVC033 02/M01 A2970 RMK AO2 SLP041 P0003 T00171011 400670006
KTXK Gnd/Twr/ZFW Texarkana Regional Airport-Webb Field (Texarkana, US-AR)
ktxkNearest METAR:
KTXK 190753Z AUTO 00000KT 4SM BR OVC003 09/09 A2994 RMK AO2 RAB12E21 SLP139 P0000 T00890089 $
KUES Gnd/Twr Waukesha County Airport (Waukesha, US-WI)
kuesNearest METAR:
KUES 190815Z AUTO 22009KT 2 1/2SM BR OVC003 00/00 A3000 RMK AO2
KUGN Tower Waukegan Regional Airport (Chicago/Waukegan, US-IL)
kugnNearest METAR:
KUGN 190755Z AUTO 22009KT 3SM BR OVC004 01/00 A3002 RMK AO2 SLP178 T00060000
KVLD Gnd/Twr/App/Dep Valdosta Regional Airport (Valdosta, US-GA)
kvldNearest METAR:
KVLD 190753Z AUTO 00000KT 1/4SM FG VV002 13/13 A3006 RMK AO2 SLP187 T01330133
KVPZ CTAF/Clearance/App Porter County Regional Airport (Valparaiso, US-IN)
kvpzNearest METAR:
KVPZ 190756Z AUTO 19004KT 6SM BR OVC008 02/01 A3008 RMK AO2 SLP193 T00220011
KYIP Gnd/Twr/App Willow Run Airport (Detroit, US-MI)
kyipNearest METAR:
KYIP 190753Z AUTO 24010KT 10SM OVC007 01/M01 A3006 RMK AO2 SLP183 T00111006
LBSF Tower/Approach Sofia International Airport (Sofia, Bulgaria)
WX MAP UNAVAILABLENearest METAR:
LBSF 190800Z 10008KT 1700 R09/1200V2000N -SN FEW024 OVC027 M05/M05 Q1030 R09/590293 NOSIG
LBWN Tower/Approach Varna Airport (Varna, Bulgaria)
WX MAP UNAVAILABLENearest METAR:
LBWN 190800Z 01017G27KT 7000 OVC009 M03/M05 Q1034 R09/71//95 NOSIG
LUKK Tower Chisinau International Airport (Chisinau, Moldova)
WX MAP UNAVAILABLENearest METAR:
LUKK 190800Z 04008KT 9999 OVC009 M07/M09 Q1039 R08/150095 TEMPO BKN005
LWSK Twr/App Skopje Airport (Petrovec, Macedonia, Republic of)
WX MAP UNAVAILABLENearest METAR:
LWSK 190800Z 15001KT 2600 -SN BR FEW005 SCT013 OVC033 M01/M02 Q1029 R34/6/0195 NOSIG
O85 CTAF/KRDD Twr/ZOA Benton Field Airport (Redding, US-CA)
krddNearest METAR:
KRDD 190753Z AUTO 25005KT 4SM RA BR OVC007 08/07 A2969 RMK AO2 CIG 005V009 SLP054 P0011 T00780072 400830061
PAFA Gnd/Twr/App Fairbanks International Airport (Fairbanks, US-AK)
pafaNearest METAR:
PAFA 190753Z 00000KT 1/4SM R02L/3000V3500FT FZFG VV003 M42/ A2954 RMK AO2 SLP030 T1417 VISNO NE $
PALH Tower Lake Hood Seaplane Base (Anchorage, US-AK)
palhNearest METAR:
PALH 190753Z 00000KT 5SM BR OVC003 M22/M24 A2928 RMK AO2 SLP917 T12221244
PANC Del/Gnd/Twr/App Ted Stevens Anchorage International Airport (Anchorage, US-AK)
pancNearest METAR:
PANC 190756Z 00000KT 1/2SM R07R/5500VP6000FT FZFG VV002 M22/M24 A2926 RMK AO2 TWR VIS 3/4 T12221239 $
Bermuda Tower/Ground L F Wade International Airport (Hamilton, Bermuda)
WX MAP UNAVAILABLENearest METAR:
TXKF 190755Z 25019KT 9999 SCT013CB BKN130 OVC180 16/15 Q1003 RMK DSNT LTGIC W ASOCTD CB
UKBB Del/Gnd/Twr/Center Boryspil International Airport (Kyiv, Ukraine)
WX MAP UNAVAILABLENearest METAR:
UKBB 190800Z 21003MPS 2100 -SN BR FEW006 OVC030 M07/M07 Q1039 R36R/811050 R36L/811055 NOSIG
ULLI Gnd/Twr/App Pulkovo Airport (Saint Petersburg, Russia)
WX MAP UNAVAILABLENearest METAR:
ULLI 190730Z 27008MPS 9999 OVC009 02/00 Q1015 R88/290050 NOSIG
UNNT Gnd/Twr/App/Radar/Misc Tolmachevo Airport (Novosibirsk, Russia)
WX MAP UNAVAILABLENearest METAR:
UNNT 190730Z 17003MPS 7000 -SN SCT007 M19/M22 Q1035 R25/490145 R16/490145 NOSIG RMK QFE766/1022
URSS Gnd/Twr/App Sochi International Airport (Sochi, Russia)
WX MAP UNAVAILABLENearest METAR:
URSS 190730Z 09003MPS 9999 -SHRA FEW016 OVC030CB 07/05 Q1024 WS ALL RWY R06/290055 R02/290055 NOSIG RMK R02/10002G05MPS MT OBSC QFE767
UUEE Twr/App/Radar Sheremetyevo Airport (Moscow, Russia)
WX MAP UNAVAILABLENearest METAR:
UUEE 190730Z 23008MPS 9999 -SN OVC017 M04/M07 Q1023 R24L/190152 NOSIG
YPAD Gnd/Twr/App/Center Adelaide International Airport (Adelaide, AU-SA)
WX MAP UNAVAILABLENearest METAR:
YPAD 190730Z 02009KT 340V050 CAVOK 37/16 Q0996 INTER 0830/1030 VRB20G35KT 2000 TSRA SCT020 SCT060CB